sensor_id;sensor_type;location;lat;lon;timestamp;temperature;humidity
65231;DHT22;51813;40.666;16.602;2022-07-10T00:00:35;24.70;49.00
65231;DHT22;51813;40.666;16.602;2022-07-10T00:03:02;24.80;49.20
65231;DHT22;51813;40.666;16.602;2022-07-10T00:05:28;24.70;49.20
65231;DHT22;51813;40.666;16.602;2022-07-10T00:07:54;24.60;49.30
65231;DHT22;51813;40.666;16.602;2022-07-10T00:10:21;24.50;50.00
65231;DHT22;51813;40.666;16.602;2022-07-10T00:12:48;24.40;50.00
65231;DHT22;51813;40.666;16.602;2022-07-10T00:15:15;24.50;49.70
65231;DHT22;51813;40.666;16.602;2022-07-10T00:17:42;24.50;49.80
65231;DHT22;51813;40.666;16.602;2022-07-10T00:20:09;24.40;49.90
65231;DHT22;51813;40.666;16.602;2022-07-10T00:22:36;24.50;49.70
65231;DHT22;51813;40.666;16.602;2022-07-10T00:25:03;24.50;49.80
65231;DHT22;51813;40.666;16.602;2022-07-10T00:27:29;24.50;49.80
65231;DHT22;51813;40.666;16.602;2022-07-10T00:29:55;24.50;50.20
65231;DHT22;51813;40.666;16.602;2022-07-10T00:32:21;24.60;50.10
65231;DHT22;51813;40.666;16.602;2022-07-10T00:34:47;24.50;50.10
65231;DHT22;51813;40.666;16.602;2022-07-10T00:37:13;24.50;50.20
65231;DHT22;51813;40.666;16.602;2022-07-10T00:39:38;24.50;49.90
65231;DHT22;51813;40.666;16.602;2022-07-10T00:42:11;24.60;49.80
65231;DHT22;51813;40.666;16.602;2022-07-10T00:44:39;24.60;49.80
65231;DHT22;51813;40.666;16.602;2022-07-10T00:47:06;24.70;49.60
65231;DHT22;51813;40.666;16.602;2022-07-10T00:49:33;24.70;49.70
65231;DHT22;51813;40.666;16.602;2022-07-10T00:52:00;24.70;49.90
65231;DHT22;51813;40.666;16.602;2022-07-10T00:54:26;24.70;49.90
65231;DHT22;51813;40.666;16.602;2022-07-10T00:56:52;24.60;50.20
65231;DHT22;51813;40.666;16.602;2022-07-10T00:59:18;24.60;50.20
65231;DHT22;51813;40.666;16.602;2022-07-10T01:01:45;24.60;50.40
65231;DHT22;51813;40.666;16.602;2022-07-10T01:04:10;24.60;50.50
65231;DHT22;51813;40.666;16.602;2022-07-10T01:06:36;24.60;50.30
65231;DHT22;51813;40.666;16.602;2022-07-10T01:09:02;24.70;50.30
65231;DHT22;51813;40.666;16.602;2022-07-10T01:11:28;24.70;50.10
65231;DHT22;51813;40.666;16.602;2022-07-10T01:13:54;24.70;50.10
65231;DHT22;51813;40.666;16.602;2022-07-10T01:16:21;24.70;50.20
65231;DHT22;51813;40.666;16.602;2022-07-10T01:18:47;24.70;50.30
65231;DHT22;51813;40.666;16.602;2022-07-10T01:21:27;24.60;50.40
65231;DHT22;51813;40.666;16.602;2022-07-10T01:23:53;24.60;50.70
65231;DHT22;51813;40.666;16.602;2022-07-10T01:26:20;24.50;50.90
65231;DHT22;51813;40.666;16.602;2022-07-10T01:28:51;24.50;50.70
65231;DHT22;51813;40.666;16.602;2022-07-10T01:31:18;24.50;51.00
65231;DHT22;51813;40.666;16.602;2022-07-10T01:33:45;24.50;50.70
65231;DHT22;51813;40.666;16.602;2022-07-10T01:36:11;24.50;50.90
65231;DHT22;51813;40.666;16.602;2022-07-10T01:38:38;24.50;50.80
65231;DHT22;51813;40.666;16.602;2022-07-10T01:41:03;24.60;50.70
65231;DHT22;51813;40.666;16.602;2022-07-10T01:43:29;24.70;50.70
65231;DHT22;51813;40.666;16.602;2022-07-10T01:45:55;24.60;50.80
65231;DHT22;51813;40.666;16.602;2022-07-10T01:48:20;24.50;50.80
65231;DHT22;51813;40.666;16.602;2022-07-10T01:50:46;24.50;50.90
65231;DHT22;51813;40.666;16.602;2022-07-10T01:53:12;24.50;51.00
65231;DHT22;51813;40.666;16.602;2022-07-10T01:55:38;24.50;51.30
65231;DHT22;51813;40.666;16.602;2022-07-10T01:58:03;24.40;51.20
65231;DHT22;51813;40.666;16.602;2022-07-10T02:00:29;24.40;51.90
65231;DHT22;51813;40.666;16.602;2022-07-10T02:02:55;24.50;51.20
65231;DHT22;51813;40.666;16.602;2022-07-10T02:05:41;24.50;51.20
65231;DHT22;51813;40.666;16.602;2022-07-10T02:08:06;24.50;51.40
65231;DHT22;51813;40.666;16.602;2022-07-10T02:10:32;24.50;51.30
65231;DHT22;51813;40.666;16.602;2022-07-10T02:12:58;24.50;51.10
65231;DHT22;51813;40.666;16.602;2022-07-10T02:15:24;24.50;51.50
65231;DHT22;51813;40.666;16.602;2022-07-10T02:17:49;24.50;51.30
65231;DHT22;51813;40.666;16.602;2022-07-10T02:20:15;24.50;51.60
65231;DHT22;51813;40.666;16.602;2022-07-10T02:22:41;24.50;51.60
65231;DHT22;51813;40.666;16.602;2022-07-10T02:25:08;24.50;51.30
65231;DHT22;51813;40.666;16.602;2022-07-10T02:27:33;24.60;51.30
65231;DHT22;51813;40.666;16.602;2022-07-10T02:29:59;24.60;51.20
65231;DHT22;51813;40.666;16.602;2022-07-10T02:32:25;24.60;51.20
65231;DHT22;51813;40.666;16.602;2022-07-10T02:34:51;24.60;51.30
65231;DHT22;51813;40.666;16.602;2022-07-10T02:37:17;24.50;51.30
65231;DHT22;51813;40.666;16.602;2022-07-10T02:39:43;24.60;51.40
65231;DHT22;51813;40.666;16.602;2022-07-10T02:42:09;24.50;51.50
65231;DHT22;51813;40.666;16.602;2022-07-10T02:44:34;24.50;51.40
65231;DHT22;51813;40.666;16.602;2022-07-10T02:47:00;24.50;51.60
65231;DHT22;51813;40.666;16.602;2022-07-10T02:49:26;24.50;51.60
65231;DHT22;51813;40.666;16.602;2022-07-10T02:51:51;24.50;51.70
65231;DHT22;51813;40.666;16.602;2022-07-10T02:54:18;24.50;51.60
65231;DHT22;51813;40.666;16.602;2022-07-10T02:56:43;24.50;51.40
65231;DHT22;51813;40.666;16.602;2022-07-10T02:59:09;24.50;51.40
65231;DHT22;51813;40.666;16.602;2022-07-10T03:01:35;24.50;51.60
65231;DHT22;51813;40.666;16.602;2022-07-10T03:04:01;24.50;51.70
65231;DHT22;51813;40.666;16.602;2022-07-10T03:06:27;24.50;51.80
65231;DHT22;51813;40.666;16.602;2022-07-10T03:08:53;24.50;51.70
65231;DHT22;51813;40.666;16.602;2022-07-10T03:11:18;24.50;51.70
65231;DHT22;51813;40.666;16.602;2022-07-10T03:13:44;24.50;51.60
65231;DHT22;51813;40.666;16.602;2022-07-10T03:16:10;24.50;51.50
65231;DHT22;51813;40.666;16.602;2022-07-10T03:18:35;24.50;51.50
65231;DHT22;51813;40.666;16.602;2022-07-10T03:21:01;24.60;51.60
65231;DHT22;51813;40.666;16.602;2022-07-10T03:23:27;24.60;51.50
65231;DHT22;51813;40.666;16.602;2022-07-10T03:25:53;24.50;51.50
65231;DHT22;51813;40.666;16.602;2022-07-10T03:28:19;24.50;51.70
65231;DHT22;51813;40.666;16.602;2022-07-10T03:30:44;24.50;51.80
65231;DHT22;51813;40.666;16.602;2022-07-10T03:33:10;24.50;51.90
65231;DHT22;51813;40.666;16.602;2022-07-10T03:35:36;24.50;51.90
65231;DHT22;51813;40.666;16.602;2022-07-10T03:38:01;24.50;52.00
65231;DHT22;51813;40.666;16.602;2022-07-10T03:40:27;24.50;51.90
65231;DHT22;51813;40.666;16.602;2022-07-10T03:42:53;24.50;51.70
65231;DHT22;51813;40.666;16.602;2022-07-10T03:45:19;24.50;51.90
65231;DHT22;51813;40.666;16.602;2022-07-10T03:47:45;24.50;51.90
65231;DHT22;51813;40.666;16.602;2022-07-10T03:50:10;24.50;51.90
65231;DHT22;51813;40.666;16.602;2022-07-10T03:52:36;24.50;52.30
65231;DHT22;51813;40.666;16.602;2022-07-10T03:55:02;24.40;52.10
65231;DHT22;51813;40.666;16.602;2022-07-10T03:57:28;24.40;52.10
65231;DHT22;51813;40.666;16.602;2022-07-10T04:00:14;24.40;52.30
65231;DHT22;51813;40.666;16.602;2022-07-10T04:02:40;24.40;52.20
65231;DHT22;51813;40.666;16.602;2022-07-10T04:05:06;24.50;52.10
65231;DHT22;51813;40.666;16.602;2022-07-10T04:07:34;24.50;52.00
65231;DHT22;51813;40.666;16.602;2022-07-10T04:10:00;24.50;51.90
65231;DHT22;51813;40.666;16.602;2022-07-10T04:12:27;24.60;51.90
65231;DHT22;51813;40.666;16.602;2022-07-10T04:14:53;24.60;51.90
65231;DHT22;51813;40.666;16.602;2022-07-10T04:17:18;24.50;51.90
65231;DHT22;51813;40.666;16.602;2022-07-10T04:19:44;24.50;52.00
65231;DHT22;51813;40.666;16.602;2022-07-10T04:22:11;24.50;52.00
65231;DHT22;51813;40.666;16.602;2022-07-10T04:24:37;24.50;52.00
65231;DHT22;51813;40.666;16.602;2022-07-10T04:27:03;24.50;52.10
65231;DHT22;51813;40.666;16.602;2022-07-10T04:29:29;24.50;52.00
65231;DHT22;51813;40.666;16.602;2022-07-10T04:31:54;24.50;52.00
65231;DHT22;51813;40.666;16.602;2022-07-10T04:34:20;24.50;51.90
65231;DHT22;51813;40.666;16.602;2022-07-10T04:36:46;24.50;52.00
65231;DHT22;51813;40.666;16.602;2022-07-10T04:39:12;24.50;52.10
65231;DHT22;51813;40.666;16.602;2022-07-10T04:41:37;24.50;52.20
65231;DHT22;51813;40.666;16.602;2022-07-10T04:44:03;24.50;52.10
65231;DHT22;51813;40.666;16.602;2022-07-10T04:46:29;24.40;51.90
65231;DHT22;51813;40.666;16.602;2022-07-10T04:48:55;24.40;52.00
65231;DHT22;51813;40.666;16.602;2022-07-10T04:51:20;24.40;51.90
65231;DHT22;51813;40.666;16.602;2022-07-10T04:53:46;24.30;52.00
65231;DHT22;51813;40.666;16.602;2022-07-10T04:56:12;24.40;52.00
65231;DHT22;51813;40.666;16.602;2022-07-10T04:58:38;24.30;52.00
65231;DHT22;51813;40.666;16.602;2022-07-10T05:01:04;24.40;52.20
65231;DHT22;51813;40.666;16.602;2022-07-10T05:03:29;24.40;52.30
65231;DHT22;51813;40.666;16.602;2022-07-10T05:05:55;24.40;52.30
65231;DHT22;51813;40.666;16.602;2022-07-10T05:08:21;24.40;52.20
65231;DHT22;51813;40.666;16.602;2022-07-10T05:10:47;24.40;52.10
65231;DHT22;51813;40.666;16.602;2022-07-10T05:13:12;24.40;52.20
65231;DHT22;51813;40.666;16.602;2022-07-10T05:15:38;24.30;52.10
65231;DHT22;51813;40.666;16.602;2022-07-10T05:18:04;24.30;52.40
65231;DHT22;51813;40.666;16.602;2022-07-10T05:20:30;24.30;52.10
65231;DHT22;51813;40.666;16.602;2022-07-10T05:22:56;24.30;52.00
65231;DHT22;51813;40.666;16.602;2022-07-10T05:25:22;24.40;52.10
65231;DHT22;51813;40.666;16.602;2022-07-10T05:27:48;24.40;52.00
65231;DHT22;51813;40.666;16.602;2022-07-10T05:30:14;24.40;51.90
65231;DHT22;51813;40.666;16.602;2022-07-10T05:32:44;24.40;52.20
65231;DHT22;51813;40.666;16.602;2022-07-10T05:35:10;24.40;52.20
65231;DHT22;51813;40.666;16.602;2022-07-10T05:37:36;24.40;52.20
65231;DHT22;51813;40.666;16.602;2022-07-10T05:40:02;24.40;52.30
65231;DHT22;51813;40.666;16.602;2022-07-10T05:42:28;24.40;52.30
65231;DHT22;51813;40.666;16.602;2022-07-10T05:44:54;24.40;52.10
65231;DHT22;51813;40.666;16.602;2022-07-10T05:47:20;24.40;52.00
65231;DHT22;51813;40.666;16.602;2022-07-10T05:49:45;24.50;52.10
65231;DHT22;51813;40.666;16.602;2022-07-10T05:52:11;24.50;51.90
65231;DHT22;51813;40.666;16.602;2022-07-10T05:54:38;24.50;51.90
65231;DHT22;51813;40.666;16.602;2022-07-10T05:57:04;24.50;51.90
65231;DHT22;51813;40.666;16.602;2022-07-10T05:59:33;24.50;51.90
65231;DHT22;51813;40.666;16.602;2022-07-10T06:02:00;24.50;52.10
65231;DHT22;51813;40.666;16.602;2022-07-10T06:04:26;24.50;52.20
65231;DHT22;51813;40.666;16.602;2022-07-10T06:06:51;24.50;52.30
65231;DHT22;51813;40.666;16.602;2022-07-10T06:09:18;24.40;52.30
65231;DHT22;51813;40.666;16.602;2022-07-10T06:11:43;24.40;52.40
65231;DHT22;51813;40.666;16.602;2022-07-10T06:14:11;24.40;52.40
65231;DHT22;51813;40.666;16.602;2022-07-10T06:16:37;24.40;52.30
65231;DHT22;51813;40.666;16.602;2022-07-10T06:19:03;24.50;52.20
65231;DHT22;51813;40.666;16.602;2022-07-10T06:21:29;24.50;52.30
65231;DHT22;51813;40.666;16.602;2022-07-10T06:23:54;24.50;52.40
65231;DHT22;51813;40.666;16.602;2022-07-10T06:26:20;24.40;52.40
65231;DHT22;51813;40.666;16.602;2022-07-10T06:28:46;24.40;52.70
65231;DHT22;51813;40.666;16.602;2022-07-10T06:31:12;24.40;52.80
65231;DHT22;51813;40.666;16.602;2022-07-10T06:33:38;24.40;52.80
65231;DHT22;51813;40.666;16.602;2022-07-10T06:36:04;24.40;52.70
65231;DHT22;51813;40.666;16.602;2022-07-10T06:38:30;24.40;52.60
65231;DHT22;51813;40.666;16.602;2022-07-10T06:40:56;24.50;52.70
65231;DHT22;51813;40.666;16.602;2022-07-10T06:43:22;24.50;52.50
65231;DHT22;51813;40.666;16.602;2022-07-10T06:45:48;24.50;52.80
65231;DHT22;51813;40.666;16.602;2022-07-10T06:48:14;24.50;52.70
65231;DHT22;51813;40.666;16.602;2022-07-10T06:50:41;24.50;52.80
65231;DHT22;51813;40.666;16.602;2022-07-10T06:53:07;24.50;52.90
65231;DHT22;51813;40.666;16.602;2022-07-10T06:55:33;24.50;52.80
65231;DHT22;51813;40.666;16.602;2022-07-10T06:57:59;24.50;52.80
65231;DHT22;51813;40.666;16.602;2022-07-10T07:00:26;24.50;52.90
65231;DHT22;51813;40.666;16.602;2022-07-10T07:02:52;24.50;53.00
65231;DHT22;51813;40.666;16.602;2022-07-10T07:05:18;24.50;52.90
65231;DHT22;51813;40.666;16.602;2022-07-10T07:07:43;24.50;52.80
65231;DHT22;51813;40.666;16.602;2022-07-10T07:10:10;24.50;52.90
65231;DHT22;51813;40.666;16.602;2022-07-10T07:12:36;24.50;52.80
65231;DHT22;51813;40.666;16.602;2022-07-10T07:15:03;24.50;52.80
65231;DHT22;51813;40.666;16.602;2022-07-10T07:17:29;24.50;52.90
65231;DHT22;51813;40.666;16.602;2022-07-10T07:20:12;24.50;52.90
65231;DHT22;51813;40.666;16.602;2022-07-10T07:22:57;24.50;52.80
65231;DHT22;51813;40.666;16.602;2022-07-10T07:25:35;24.40;52.60
65231;DHT22;51813;40.666;16.602;2022-07-10T07:28:01;24.40;53.50
65231;DHT22;51813;40.666;16.602;2022-07-10T07:30:26;24.50;52.30
65231;DHT22;51813;40.666;16.602;2022-07-10T07:32:52;24.50;52.00
65231;DHT22;51813;40.666;16.602;2022-07-10T07:35:18;24.50;52.00
65231;DHT22;51813;40.666;16.602;2022-07-10T07:37:49;24.50;51.80
65231;DHT22;51813;40.666;16.602;2022-07-10T07:40:15;24.50;51.60
65231;DHT22;51813;40.666;16.602;2022-07-10T07:42:42;24.50;51.60
65231;DHT22;51813;40.666;16.602;2022-07-10T07:45:09;24.50;51.60
65231;DHT22;51813;40.666;16.602;2022-07-10T07:47:50;24.50;51.60
65231;DHT22;51813;40.666;16.602;2022-07-10T07:50:18;24.40;51.30
65231;DHT22;51813;40.666;16.602;2022-07-10T07:52:45;24.40;51.10
65231;DHT22;51813;40.666;16.602;2022-07-10T07:55:12;24.40;51.20
65231;DHT22;51813;40.666;16.602;2022-07-10T07:57:38;24.40;51.00
65231;DHT22;51813;40.666;16.602;2022-07-10T08:00:05;24.40;50.90
65231;DHT22;51813;40.666;16.602;2022-07-10T08:02:32;24.50;50.80
65231;DHT22;51813;40.666;16.602;2022-07-10T08:04:58;24.50;50.60
65231;DHT22;51813;40.666;16.602;2022-07-10T08:08:05;24.50;50.80
65231;DHT22;51813;40.666;16.602;2022-07-10T08:10:27;24.50;50.80
65231;DHT22;51813;40.666;16.602;2022-07-10T08:12:53;24.50;50.60
65231;DHT22;51813;40.666;16.602;2022-07-10T08:15:20;24.40;50.50
65231;DHT22;51813;40.666;16.602;2022-07-10T08:17:50;24.40;50.70
65231;DHT22;51813;40.666;16.602;2022-07-10T08:20:16;24.40;50.80
65231;DHT22;51813;40.666;16.602;2022-07-10T08:22:43;24.50;50.50
65231;DHT22;51813;40.666;16.602;2022-07-10T08:25:09;24.50;50.30
65231;DHT22;51813;40.666;16.602;2022-07-10T08:27:36;24.50;50.30
65231;DHT22;51813;40.666;16.602;2022-07-10T08:30:03;24.50;50.00
65231;DHT22;51813;40.666;16.602;2022-07-10T08:32:29;24.50;49.50
65231;DHT22;51813;40.666;16.602;2022-07-10T08:34:55;24.50;49.40
65231;DHT22;51813;40.666;16.602;2022-07-10T08:37:20;24.50;49.30
65231;DHT22;51813;40.666;16.602;2022-07-10T08:39:46;24.50;49.10
65231;DHT22;51813;40.666;16.602;2022-07-10T08:42:12;24.50;48.90
65231;DHT22;51813;40.666;16.602;2022-07-10T08:44:40;24.50;49.00
65231;DHT22;51813;40.666;16.602;2022-07-10T08:47:06;24.50;49.00
65231;DHT22;51813;40.666;16.602;2022-07-10T08:49:32;24.50;49.00
65231;DHT22;51813;40.666;16.602;2022-07-10T08:52:09;24.50;49.00
65231;DHT22;51813;40.666;16.602;2022-07-10T08:54:38;24.50;48.80
65231;DHT22;51813;40.666;16.602;2022-07-10T08:57:05;24.50;48.60
65231;DHT22;51813;40.666;16.602;2022-07-10T08:59:32;24.60;48.90
65231;DHT22;51813;40.666;16.602;2022-07-10T09:01:58;24.60;48.80
65231;DHT22;51813;40.666;16.602;2022-07-10T09:04:25;24.60;48.30
65231;DHT22;51813;40.666;16.602;2022-07-10T09:06:52;24.60;48.60
65231;DHT22;51813;40.666;16.602;2022-07-10T09:09:19;24.60;48.30
65231;DHT22;51813;40.666;16.602;2022-07-10T09:11:45;24.60;48.60
65231;DHT22;51813;40.666;16.602;2022-07-10T09:14:14;24.60;48.50
65231;DHT22;51813;40.666;16.602;2022-07-10T09:16:41;24.60;48.20
65231;DHT22;51813;40.666;16.602;2022-07-10T09:19:25;24.60;48.30
65231;DHT22;51813;40.666;16.602;2022-07-10T09:22:05;24.70;48.70
65231;DHT22;51813;40.666;16.602;2022-07-10T09:24:39;24.70;48.40
65231;DHT22;51813;40.666;16.602;2022-07-10T09:27:06;24.60;48.40
65231;DHT22;51813;40.666;16.602;2022-07-10T09:29:34;24.60;48.40
65231;DHT22;51813;40.666;16.602;2022-07-10T09:32:09;24.60;48.60
65231;DHT22;51813;40.666;16.602;2022-07-10T09:34:43;24.60;48.50
65231;DHT22;51813;40.666;16.602;2022-07-10T09:37:26;24.60;48.90
65231;DHT22;51813;40.666;16.602;2022-07-10T09:40:02;24.60;48.90
65231;DHT22;51813;40.666;16.602;2022-07-10T09:42:31;24.60;48.90
65231;DHT22;51813;40.666;16.602;2022-07-10T09:47:35;24.70;48.90
65231;DHT22;51813;40.666;16.602;2022-07-10T09:50:01;24.60;48.90
65231;DHT22;51813;40.666;16.602;2022-07-10T09:52:27;24.60;48.30
65231;DHT22;51813;40.666;16.602;2022-07-10T09:54:57;24.60;48.60
65231;DHT22;51813;40.666;16.602;2022-07-10T09:57:27;24.60;48.40
65231;DHT22;51813;40.666;16.602;2022-07-10T09:59:53;24.60;48.00
65231;DHT22;51813;40.666;16.602;2022-07-10T10:02:21;24.60;48.90
65231;DHT22;51813;40.666;16.602;2022-07-10T10:04:48;24.60;47.40
65231;DHT22;51813;40.666;16.602;2022-07-10T10:07:18;24.70;47.30
65231;DHT22;51813;40.666;16.602;2022-07-10T10:10:04;24.70;47.50
65231;DHT22;51813;40.666;16.602;2022-07-10T10:12:47;24.60;47.40
65231;DHT22;51813;40.666;16.602;2022-07-10T10:15:14;24.60;47.30
65231;DHT22;51813;40.666;16.602;2022-07-10T10:17:41;24.60;47.30
65231;DHT22;51813;40.666;16.602;2022-07-10T10:20:08;24.60;47.20
65231;DHT22;51813;40.666;16.602;2022-07-10T10:22:55;24.60;47.20
65231;DHT22;51813;40.666;16.602;2022-07-10T10:25:24;24.60;46.90
65231;DHT22;51813;40.666;16.602;2022-07-10T10:27:50;24.70;47.00
65231;DHT22;51813;40.666;16.602;2022-07-10T10:30:16;24.70;46.80
65231;DHT22;51813;40.666;16.602;2022-07-10T10:32:42;24.70;46.20
65231;DHT22;51813;40.666;16.602;2022-07-10T10:35:08;24.70;46.60
65231;DHT22;51813;40.666;16.602;2022-07-10T10:37:38;24.70;46.50
65231;DHT22;51813;40.666;16.602;2022-07-10T10:40:07;24.70;46.40
65231;DHT22;51813;40.666;16.602;2022-07-10T10:53:28;24.70;46.30
65231;DHT22;51813;40.666;16.602;2022-07-10T10:58:43;24.70;46.10
65231;DHT22;51813;40.666;16.602;2022-07-10T11:06:40;24.70;46.10
65231;DHT22;51813;40.666;16.602;2022-07-10T11:14:26;24.70;46.70
65231;DHT22;51813;40.666;16.602;2022-07-10T11:16:54;24.70;46.80
65231;DHT22;51813;40.666;16.602;2022-07-10T11:19:28;24.70;46.70
65231;DHT22;51813;40.666;16.602;2022-07-10T11:24:48;24.80;46.40
65231;DHT22;51813;40.666;16.602;2022-07-10T11:30:01;24.80;46.30
65231;DHT22;51813;40.666;16.602;2022-07-10T11:32:28;24.80;46.70
65231;DHT22;51813;40.666;16.602;2022-07-10T11:34:54;24.80;46.70
65231;DHT22;51813;40.666;16.602;2022-07-10T11:37:20;24.80;47.00
65231;DHT22;51813;40.666;16.602;2022-07-10T11:39:47;24.80;46.90
65231;DHT22;51813;40.666;16.602;2022-07-10T11:42:13;24.70;46.70
65231;DHT22;51813;40.666;16.602;2022-07-10T11:44:39;24.80;46.90
65231;DHT22;51813;40.666;16.602;2022-07-10T11:47:05;24.80;46.80
65231;DHT22;51813;40.666;16.602;2022-07-10T11:49:31;24.80;46.80
65231;DHT22;51813;40.666;16.602;2022-07-10T11:52:03;24.90;46.40
65231;DHT22;51813;40.666;16.602;2022-07-10T11:54:30;24.90;46.80
65231;DHT22;51813;40.666;16.602;2022-07-10T11:56:55;24.80;46.70
65231;DHT22;51813;40.666;16.602;2022-07-10T11:59:26;24.80;46.60
65231;DHT22;51813;40.666;16.602;2022-07-10T12:01:54;24.80;47.00
65231;DHT22;51813;40.666;16.602;2022-07-10T12:04:22;24.80;46.70
65231;DHT22;51813;40.666;16.602;2022-07-10T12:06:51;24.80;46.90
65231;DHT22;51813;40.666;16.602;2022-07-10T12:09:18;24.80;46.40
65231;DHT22;51813;40.666;16.602;2022-07-10T12:14:26;24.80;45.80
65231;DHT22;51813;40.666;16.602;2022-07-10T12:16:52;24.80;45.90
65231;DHT22;51813;40.666;16.602;2022-07-10T12:19:30;24.80;45.80
65231;DHT22;51813;40.666;16.602;2022-07-10T12:21:58;24.80;46.10
65231;DHT22;51813;40.666;16.602;2022-07-10T12:24:26;24.80;46.20
65231;DHT22;51813;40.666;16.602;2022-07-10T12:26:52;24.80;45.90
65231;DHT22;51813;40.666;16.602;2022-07-10T12:29:25;24.80;46.00
65231;DHT22;51813;40.666;16.602;2022-07-10T12:31:54;24.80;46.00
65231;DHT22;51813;40.666;16.602;2022-07-10T12:34:36;24.80;45.60
65231;DHT22;51813;40.666;16.602;2022-07-10T12:37:12;24.80;45.30
65231;DHT22;51813;40.666;16.602;2022-07-10T12:39:52;24.90;45.20
65231;DHT22;51813;40.666;16.602;2022-07-10T12:42:31;24.80;44.90
65231;DHT22;51813;40.666;16.602;2022-07-10T12:45:14;24.80;44.80
65231;DHT22;51813;40.666;16.602;2022-07-10T12:47:48;24.80;45.10
65231;DHT22;51813;40.666;16.602;2022-07-10T12:50:15;24.80;45.10
65231;DHT22;51813;40.666;16.602;2022-07-10T12:52:45;24.80;44.60
65231;DHT22;51813;40.666;16.602;2022-07-10T12:57:57;24.80;44.70
65231;DHT22;51813;40.666;16.602;2022-07-10T13:00:29;24.80;44.10
65231;DHT22;51813;40.666;16.602;2022-07-10T13:03:07;24.80;43.90
65231;DHT22;51813;40.666;16.602;2022-07-10T13:05:41;24.90;43.90
65231;DHT22;51813;40.666;16.602;2022-07-10T13:08:20;24.90;43.90
65231;DHT22;51813;40.666;16.602;2022-07-10T13:10:50;24.90;44.20
65231;DHT22;51813;40.666;16.602;2022-07-10T13:13:17;24.90;43.90
65231;DHT22;51813;40.666;16.602;2022-07-10T13:15:44;24.90;43.40
65231;DHT22;51813;40.666;16.602;2022-07-10T13:18:20;24.90;44.10
65231;DHT22;51813;40.666;16.602;2022-07-10T13:20:48;24.90;43.80
65231;DHT22;51813;40.666;16.602;2022-07-10T13:23:14;24.90;43.60
65231;DHT22;51813;40.666;16.602;2022-07-10T13:25:41;24.90;43.90
65231;DHT22;51813;40.666;16.602;2022-07-10T13:28:08;25.00;43.10
65231;DHT22;51813;40.666;16.602;2022-07-10T13:30:35;25.00;43.30
65231;DHT22;51813;40.666;16.602;2022-07-10T13:33:00;25.00;43.30
65231;DHT22;51813;40.666;16.602;2022-07-10T13:35:30;25.00;43.50
65231;DHT22;51813;40.666;16.602;2022-07-10T13:38:00;25.00;43.20
65231;DHT22;51813;40.666;16.602;2022-07-10T13:40:31;25.00;43.70
65231;DHT22;51813;40.666;16.602;2022-07-10T13:42:57;25.00;43.50
65231;DHT22;51813;40.666;16.602;2022-07-10T13:45:24;25.00;43.70
65231;DHT22;51813;40.666;16.602;2022-07-10T13:47:57;25.00;43.70
65231;DHT22;51813;40.666;16.602;2022-07-10T13:50:24;25.00;43.90
65231;DHT22;51813;40.666;16.602;2022-07-10T13:52:50;25.10;44.70
65231;DHT22;51813;40.666;16.602;2022-07-10T13:55:16;25.10;43.70
65231;DHT22;51813;40.666;16.602;2022-07-10T13:57:42;25.10;43.80
65231;DHT22;51813;40.666;16.602;2022-07-10T14:00:08;25.10;44.00
65231;DHT22;51813;40.666;16.602;2022-07-10T14:02:34;25.10;44.00
65231;DHT22;51813;40.666;16.602;2022-07-10T14:05:00;25.10;43.90
65231;DHT22;51813;40.666;16.602;2022-07-10T14:07:26;25.10;44.00
65231;DHT22;51813;40.666;16.602;2022-07-10T14:09:52;25.10;44.00
65231;DHT22;51813;40.666;16.602;2022-07-10T14:12:17;25.10;43.50
65231;DHT22;51813;40.666;16.602;2022-07-10T14:14:43;25.10;44.20
65231;DHT22;51813;40.666;16.602;2022-07-10T14:17:09;25.10;43.50
65231;DHT22;51813;40.666;16.602;2022-07-10T14:19:35;25.10;43.50
65231;DHT22;51813;40.666;16.602;2022-07-10T14:22:01;25.20;43.80
65231;DHT22;51813;40.666;16.602;2022-07-10T14:24:27;25.20;43.60
65231;DHT22;51813;40.666;16.602;2022-07-10T14:26:52;25.20;43.40
65231;DHT22;51813;40.666;16.602;2022-07-10T14:29:21;25.20;43.50
65231;DHT22;51813;40.666;16.602;2022-07-10T14:31:47;25.20;43.40
65231;DHT22;51813;40.666;16.602;2022-07-10T14:34:17;25.20;44.10
65231;DHT22;51813;40.666;16.602;2022-07-10T14:36:43;25.20;43.90
65231;DHT22;51813;40.666;16.602;2022-07-10T14:39:09;25.20;43.40
65231;DHT22;51813;40.666;16.602;2022-07-10T14:41:37;25.30;43.90
65231;DHT22;51813;40.666;16.602;2022-07-10T14:44:04;25.30;43.50
65231;DHT22;51813;40.666;16.602;2022-07-10T14:46:30;25.30;43.90
65231;DHT22;51813;40.666;16.602;2022-07-10T14:48:55;25.30;44.50
65231;DHT22;51813;40.666;16.602;2022-07-10T14:51:21;25.30;43.40
65231;DHT22;51813;40.666;16.602;2022-07-10T14:53:47;25.30;43.80
65231;DHT22;51813;40.666;16.602;2022-07-10T14:56:13;25.30;43.60
65231;DHT22;51813;40.666;16.602;2022-07-10T14:58:42;25.30;43.60
65231;DHT22;51813;40.666;16.602;2022-07-10T15:01:08;25.30;43.30
65231;DHT22;51813;40.666;16.602;2022-07-10T15:03:34;25.30;43.20
65231;DHT22;51813;40.666;16.602;2022-07-10T15:06:00;25.40;42.80
65231;DHT22;51813;40.666;16.602;2022-07-10T15:08:26;25.30;43.40
65231;DHT22;51813;40.666;16.602;2022-07-10T15:10:51;25.40;43.30
65231;DHT22;51813;40.666;16.602;2022-07-10T15:13:17;25.40;43.00
65231;DHT22;51813;40.666;16.602;2022-07-10T15:15:43;25.40;43.40
65231;DHT22;51813;40.666;16.602;2022-07-10T15:18:09;25.40;42.80
65231;DHT22;51813;40.666;16.602;2022-07-10T15:20:35;25.30;43.40
65231;DHT22;51813;40.666;16.602;2022-07-10T15:23:05;25.40;43.10
65231;DHT22;51813;40.666;16.602;2022-07-10T15:25:31;25.30;43.10
65231;DHT22;51813;40.666;16.602;2022-07-10T15:27:56;25.30;43.30
65231;DHT22;51813;40.666;16.602;2022-07-10T15:30:22;25.30;43.10
65231;DHT22;51813;40.666;16.602;2022-07-10T15:32:48;25.40;43.30
65231;DHT22;51813;40.666;16.602;2022-07-10T15:35:14;25.40;43.00
65231;DHT22;51813;40.666;16.602;2022-07-10T15:37:40;25.40;43.00
65231;DHT22;51813;40.666;16.602;2022-07-10T15:40:06;25.40;42.50
65231;DHT22;51813;40.666;16.602;2022-07-10T15:42:33;25.40;42.70
65231;DHT22;51813;40.666;16.602;2022-07-10T15:44:58;25.40;42.80
65231;DHT22;51813;40.666;16.602;2022-07-10T15:47:24;25.40;42.50
65231;DHT22;51813;40.666;16.602;2022-07-10T15:49:50;25.30;42.00
65231;DHT22;51813;40.666;16.602;2022-07-10T15:52:16;25.40;42.20
65231;DHT22;51813;40.666;16.602;2022-07-10T15:54:42;25.40;41.10